createdAt,value
2022-10-19T00:01:20.513Z,8.48
2022-10-19T00:06:20.586Z,9.57
2022-10-19T00:08:47.321Z,8.45
2022-10-19T00:11:14.120Z,9.73
2022-10-19T00:13:40.899Z,10.10
2022-10-19T00:16:11.472Z,10.25
2022-10-19T00:18:38.505Z,9.70
2022-10-19T00:21:06.810Z,10.10
2022-10-19T00:23:33.860Z,10.23
2022-10-19T00:26:01.012Z,10.18
2022-10-19T00:28:27.946Z,10.85
2022-10-19T00:30:54.677Z,10.18
2022-10-19T00:33:22.600Z,11.55
2022-10-19T00:35:51.522Z,9.68
2022-10-19T00:38:20.411Z,10.88
2022-10-19T00:40:47.674Z,10.05
2022-10-19T00:43:17.217Z,10.65
2022-10-19T00:45:43.930Z,9.60
2022-10-19T00:48:15.569Z,10.50
2022-10-19T00:50:43.627Z,10.93
2022-10-19T00:53:10.785Z,11.50
2022-10-19T00:55:39.121Z,10.25
2022-10-19T00:58:06.014Z,10.38
2022-10-19T01:00:34.185Z,11.65
2022-10-19T01:03:03.212Z,11.77
2022-10-19T01:05:31.650Z,11.23
2022-10-19T01:07:58.364Z,11.73
2022-10-19T01:10:46.252Z,11.52
2022-10-19T01:13:44.193Z,11.15
2022-10-19T01:16:49.317Z,11.75
2022-10-19T01:19:54.448Z,10.60
2022-10-19T01:22:45.310Z,11.20
2022-10-19T01:25:36.195Z,11.80
2022-10-19T01:28:17.338Z,10.20
2022-10-19T01:30:56.321Z,11.00
2022-10-19T01:33:30.549Z,11.30
2022-10-19T01:36:17.268Z,10.90
2022-10-19T01:39:02.404Z,10.50
2022-10-19T01:41:41.196Z,11.32
2022-10-19T01:44:13.644Z,11.45
2022-10-19T01:46:43.365Z,12.40
2022-10-19T01:49:33.259Z,13.00
2022-10-19T01:52:04.251Z,12.18
2022-10-19T01:54:38.472Z,13.77
2022-10-19T01:57:08.750Z,13.90
2022-10-19T01:59:37.430Z,13.68
2022-10-19T02:02:07.000Z,13.05
2022-10-19T02:04:34.806Z,13.93
2022-10-19T02:07:03.125Z,13.70
2022-10-19T02:09:30.234Z,14.52
2022-10-19T02:11:59.558Z,13.43
2022-10-19T02:14:31.998Z,13.25
2022-10-19T02:17:06.152Z,13.57
2022-10-19T02:19:32.902Z,15.43
2022-10-19T02:21:59.906Z,14.00
2022-10-19T02:24:26.571Z,13.90
2022-10-19T02:26:55.602Z,14.43
2022-10-19T02:29:22.557Z,14.73
2022-10-19T02:31:49.405Z,14.52
2022-10-19T02:34:16.138Z,15.70
2022-10-19T02:36:42.857Z,14.57
2022-10-19T02:39:09.894Z,16.42
2022-10-19T02:41:49.359Z,15.27
2022-10-19T02:44:28.872Z,16.42
2022-10-19T02:47:09.488Z,15.90
2022-10-19T02:49:37.818Z,15.35
2022-10-19T02:52:07.395Z,15.90
2022-10-19T02:54:34.394Z,15.73
2022-10-19T02:57:01.219Z,16.33
2022-10-19T02:59:27.855Z,15.65
2022-10-19T03:01:54.635Z,17.23
2022-10-19T03:04:21.271Z,16.20
2022-10-19T03:06:47.878Z,16.25
2022-10-19T03:09:14.493Z,15.30
2022-10-19T03:11:41.135Z,15.05
2022-10-19T03:14:07.851Z,16.33
2022-10-19T03:16:34.438Z,15.95
2022-10-19T03:19:00.981Z,15.50
2022-10-19T03:21:27.600Z,16.20
2022-10-19T03:23:54.675Z,16.10
2022-10-19T03:26:21.359Z,15.35
2022-10-19T03:28:47.994Z,15.73
2022-10-19T03:31:14.623Z,15.57
2022-10-19T03:33:41.221Z,14.55
2022-10-19T03:36:21.792Z,15.35
2022-10-19T03:38:52.473Z,13.68
2022-10-19T03:41:20.877Z,14.48
2022-10-19T03:43:48.170Z,13.35
2022-10-19T03:46:15.222Z,13.45
2022-10-19T03:48:41.899Z,13.32
2022-10-19T03:51:11.945Z,13.35
2022-10-19T03:53:39.182Z,15.60
2022-10-19T03:56:08.351Z,14.68
2022-10-19T03:58:36.747Z,12.95
2022-10-19T04:01:09.085Z,14.38
2022-10-19T04:06:37.590Z,14.18
2022-10-19T04:09:05.275Z,14.27
2022-10-19T04:11:33.587Z,14.48
2022-10-19T04:14:01.130Z,14.40
2022-10-19T04:16:29.835Z,13.70
2022-10-19T04:18:57.103Z,13.93
2022-10-19T04:21:26.274Z,13.88
2022-10-19T04:23:57.284Z,14.18
2022-10-19T04:26:23.957Z,13.13
2022-10-19T04:28:50.620Z,14.07
2022-10-19T04:31:17.273Z,13.85
2022-10-19T04:33:43.957Z,12.52
2022-10-19T04:36:12.282Z,13.88
2022-10-19T04:38:39.707Z,13.27
2022-10-19T04:41:10.056Z,14.23
2022-10-19T04:43:37.258Z,12.75
2022-10-19T04:46:13.214Z,12.90
2022-10-19T04:48:41.117Z,12.95
2022-10-19T04:51:08.817Z,12.27
2022-10-19T04:53:37.601Z,12.10
2022-10-19T04:56:06.551Z,12.80
2022-10-19T04:58:33.128Z,10.80
2022-10-19T05:00:59.831Z,10.60
2022-10-19T05:03:26.427Z,11.07
2022-10-19T05:05:53.408Z,11.65
2022-10-19T05:08:19.980Z,10.20
2022-10-19T05:10:47.727Z,10.18
2022-10-19T05:13:14.576Z,10.07
2022-10-19T05:15:41.754Z,10.20
2022-10-19T05:18:08.314Z,9.55
2022-10-19T05:20:35.079Z,10.85
2022-10-19T05:23:06.201Z,10.38
2022-10-19T05:25:34.168Z,10.38
2022-10-19T05:28:00.781Z,10.50
2022-10-19T05:30:27.385Z,9.88
2022-10-19T05:32:53.954Z,9.63
2022-10-19T05:35:22.711Z,8.70
2022-10-19T05:37:54.492Z,8.40
2022-10-19T05:40:21.195Z,8.90
2022-10-19T05:42:47.810Z,8.57
2022-10-19T05:45:14.447Z,8.55
2022-10-19T05:47:41.037Z,7.40
2022-10-19T05:50:07.963Z,7.70
2022-10-19T05:52:34.533Z,7.85
2022-10-19T05:55:01.123Z,7.03
2022-10-19T05:57:27.715Z,7.57
2022-10-19T05:59:56.848Z,6.90
2022-10-19T06:02:23.793Z,7.03
2022-10-19T06:04:50.754Z,6.93
2022-10-19T06:07:17.442Z,7.05
2022-10-19T06:09:44.040Z,6.88
2022-10-19T06:12:10.783Z,7.07
2022-10-19T06:14:37.451Z,6.32
2022-10-19T06:17:04.555Z,6.43
2022-10-19T06:19:31.182Z,6.70
2022-10-19T06:21:57.756Z,6.03
2022-10-19T06:24:24.407Z,5.35
2022-10-19T06:26:50.997Z,6.13
2022-10-19T06:29:17.583Z,6.25
2022-10-19T06:31:44.188Z,5.65
2022-10-19T06:34:10.833Z,5.78
2022-10-19T06:36:37.621Z,6.20
2022-10-19T06:39:04.495Z,5.93
2022-10-19T06:41:31.852Z,5.13
2022-10-19T06:43:58.462Z,5.80
2022-10-19T06:46:26.755Z,5.70
2022-10-19T06:48:58.641Z,5.75
2022-10-19T06:51:27.211Z,5.85
2022-10-19T06:53:57.088Z,5.45
2022-10-19T06:56:24.876Z,5.47
2022-10-19T06:58:51.900Z,5.45
2022-10-19T07:01:18.598Z,5.00
2022-10-19T07:03:45.376Z,5.53
2022-10-19T07:06:13.408Z,5.65
2022-10-19T07:08:42.228Z,5.35
2022-10-19T07:11:12.312Z,5.30
2022-10-19T07:13:39.653Z,4.82
2022-10-19T07:16:15.795Z,5.15
2022-10-19T07:18:47.152Z,4.88
2022-10-19T07:21:16.498Z,5.15
2022-10-19T07:23:47.524Z,5.05
2022-10-19T07:26:21.440Z,5.35
2022-10-19T07:28:49.470Z,4.78
2022-10-19T07:31:22.966Z,5.13
2022-10-19T07:33:54.090Z,4.65
2022-10-19T07:36:21.006Z,5.28
2022-10-19T07:38:47.685Z,4.75
2022-10-19T07:41:16.542Z,4.35
2022-10-19T07:43:45.639Z,4.68
2022-10-19T07:46:18.788Z,4.53
2022-10-19T07:48:46.257Z,4.70
2022-10-19T07:51:15.483Z,4.43
2022-10-19T07:53:42.853Z,4.85
2022-10-19T07:56:11.314Z,4.72
2022-10-19T07:58:38.301Z,4.85
2022-10-19T08:01:08.188Z,4.22
2022-10-19T08:06:22.572Z,3.97
2022-10-19T08:08:50.020Z,5.43
2022-10-19T08:11:22.885Z,5.15
2022-10-19T08:13:50.042Z,3.90
2022-10-19T08:16:34.509Z,4.05
2022-10-19T08:19:04.129Z,3.95
2022-10-19T08:21:31.504Z,4.57
2022-10-19T08:23:58.454Z,4.38
2022-10-19T08:26:25.625Z,3.55
2022-10-19T08:28:52.375Z,4.40
2022-10-19T08:31:22.688Z,4.03
2022-10-19T08:33:50.999Z,4.18
2022-10-19T08:36:19.860Z,3.65
2022-10-19T08:38:48.542Z,3.70
2022-10-19T08:41:41.503Z,3.38
2022-10-19T08:44:29.213Z,3.35
2022-10-19T08:47:14.743Z,3.65
2022-10-19T08:49:43.215Z,3.45
2022-10-19T08:52:34.930Z,3.30
2022-10-19T08:55:13.103Z,3.42
2022-10-19T08:58:06.897Z,3.25
2022-10-19T09:00:44.696Z,3.20
2022-10-19T09:03:37.768Z,3.13
2022-10-19T09:06:27.150Z,3.17
2022-10-19T09:08:55.866Z,3.47
2022-10-19T09:11:29.786Z,2.80
2022-10-19T09:14:15.464Z,3.40
2022-10-19T09:16:43.039Z,2.90
2022-10-19T09:19:26.313Z,3.10
2022-10-19T09:21:58.782Z,2.90
2022-10-19T09:24:36.958Z,3.05
2022-10-19T09:27:03.996Z,2.67
2022-10-19T09:29:42.448Z,2.88
2022-10-19T09:32:20.365Z,2.60
2022-10-19T09:34:53.415Z,2.70
2022-10-19T09:37:25.893Z,4.20
2022-10-19T09:39:55.133Z,2.60
2022-10-19T09:42:29.581Z,2.83
2022-10-19T09:44:58.517Z,2.65
2022-10-19T09:47:37.885Z,2.50
2022-10-19T09:50:21.225Z,2.50
2022-10-19T09:53:04.077Z,2.47
2022-10-19T09:55:41.471Z,2.72
2022-10-19T09:58:14.294Z,2.40
2022-10-19T10:00:46.857Z,2.25
2022-10-19T10:03:28.753Z,2.20
2022-10-19T10:06:04.197Z,2.08
2022-10-19T10:08:34.796Z,2.30
2022-10-19T10:11:22.527Z,2.30
2022-10-19T10:13:51.681Z,2.75
2022-10-19T10:16:22.278Z,2.80
2022-10-19T10:18:58.146Z,2.33
2022-10-19T10:24:17.404Z,2.45
2022-10-19T10:26:45.427Z,2.67
2022-10-19T10:29:21.806Z,2.55
2022-10-19T10:31:53.718Z,2.42
2022-10-19T10:34:51.794Z,2.30
2022-10-19T10:37:23.765Z,2.17
2022-10-19T10:39:58.945Z,2.20
2022-10-19T10:42:33.554Z,2.20
2022-10-19T10:45:01.024Z,2.10
2022-10-19T10:47:29.004Z,2.03
2022-10-19T10:50:06.627Z,1.90
2022-10-19T10:52:34.056Z,1.90
2022-10-19T10:55:19.157Z,1.95
2022-10-19T10:57:52.961Z,1.70
2022-10-19T11:00:22.073Z,2.00
2022-10-19T11:03:13.079Z,1.63
2022-10-19T11:05:46.788Z,1.83
2022-10-19T11:08:21.238Z,1.50
2022-10-19T11:11:16.689Z,2.00
2022-10-19T11:13:52.958Z,2.03
2022-10-19T11:16:27.050Z,1.65
2022-10-19T11:18:58.971Z,1.75
2022-10-19T11:21:47.259Z,1.80
2022-10-19T11:24:27.478Z,1.73
2022-10-19T11:26:54.021Z,1.85
2022-10-19T11:30:03.219Z,1.75
2022-10-19T11:32:52.616Z,1.70
2022-10-19T11:35:49.769Z,1.55
2022-10-19T11:38:51.735Z,1.70
2022-10-19T11:41:30.234Z,1.90
2022-10-19T11:44:20.729Z,2.05
2022-10-19T11:47:21.451Z,2.00
2022-10-19T11:53:27.461Z,1.95
2022-10-19T11:56:03.104Z,2.00
2022-10-19T11:59:07.883Z,2.20
2022-10-19T12:01:53.134Z,2.65
2022-10-19T12:04:57.425Z,2.10
2022-10-19T12:07:56.806Z,2.30
2022-10-19T12:10:52.162Z,2.42
2022-10-19T12:13:37.412Z,2.83
2022-10-19T12:16:06.046Z,2.80
2022-10-19T12:18:43.453Z,2.70
2022-10-19T12:21:26.425Z,2.78
2022-10-19T12:23:54.429Z,2.83
2022-10-19T12:26:22.515Z,2.75
2022-10-19T12:29:02.010Z,2.65
2022-10-19T12:31:30.673Z,3.13
2022-10-19T12:34:20.760Z,2.83
2022-10-19T12:37:08.679Z,3.00
2022-10-19T12:39:40.905Z,2.72
2022-10-19T12:42:27.703Z,3.00
2022-10-19T12:45:18.958Z,2.65
2022-10-19T12:48:12.924Z,2.58
2022-10-19T12:50:48.640Z,2.70
2022-10-19T12:53:36.259Z,2.90
2022-10-19T12:56:07.737Z,2.45
2022-10-19T12:58:43.484Z,2.78
2022-10-19T13:01:19.597Z,2.90
2022-10-19T13:03:47.535Z,2.60
2022-10-19T13:06:29.828Z,2.45
2022-10-19T13:09:00.798Z,2.60
2022-10-19T13:11:27.651Z,2.50
2022-10-19T13:14:00.786Z,2.60
2022-10-19T13:16:30.105Z,2.55
2022-10-19T13:18:59.638Z,2.90
2022-10-19T13:21:51.067Z,3.22
2022-10-19T13:24:26.033Z,2.60
2022-10-19T13:27:04.832Z,2.60
2022-10-19T13:29:37.249Z,2.40
2022-10-19T13:32:43.537Z,2.58
2022-10-19T13:35:28.788Z,2.45
2022-10-19T13:38:17.259Z,2.60
2022-10-19T13:40:49.708Z,2.80
2022-10-19T13:43:25.153Z,2.50
2022-10-19T13:46:15.041Z,2.50
2022-10-19T13:49:19.195Z,2.70
2022-10-19T13:51:59.410Z,2.88
2022-10-19T13:54:56.114Z,2.30
2022-10-19T13:58:02.023Z,2.47
2022-10-19T14:00:48.854Z,2.20
2022-10-19T14:03:35.678Z,2.58
2022-10-19T14:06:28.512Z,2.50
2022-10-19T14:09:43.570Z,2.42
2022-10-19T14:12:19.004Z,2.42
2022-10-19T14:14:45.560Z,2.45
2022-10-19T14:17:21.526Z,2.40
2022-10-19T14:19:51.567Z,2.40
2022-10-19T14:22:36.270Z,2.60
2022-10-19T14:25:19.514Z,2.83
2022-10-19T14:27:47.953Z,2.70
2022-10-19T14:30:31.739Z,3.15
2022-10-19T14:33:02.301Z,3.42
2022-10-19T14:35:38.229Z,2.95
2022-10-19T14:38:09.152Z,3.00
2022-10-19T14:40:41.340Z,3.00
2022-10-19T14:43:34.680Z,2.65
2022-10-19T14:46:07.288Z,3.00
2022-10-19T14:48:35.719Z,3.13
2022-10-19T14:51:05.354Z,3.28
2022-10-19T14:53:39.934Z,3.17
2022-10-19T14:56:21.559Z,3.40
2022-10-19T14:58:53.896Z,3.25
2022-10-19T15:01:21.765Z,2.90
2022-10-19T15:03:50.062Z,2.53
2022-10-19T15:06:20.022Z,2.80
2022-10-19T15:09:12.151Z,3.00
2022-10-19T15:11:47.347Z,2.88
2022-10-19T15:14:28.327Z,3.28
2022-10-19T15:17:00.925Z,3.67
2022-10-19T15:19:35.416Z,3.25
2022-10-19T15:22:23.805Z,3.35
2022-10-19T15:25:02.298Z,3.10
2022-10-19T15:27:42.010Z,2.95
2022-10-19T15:30:17.507Z,3.40
2022-10-19T15:32:46.528Z,3.95
2022-10-19T15:35:25.118Z,3.58
2022-10-19T15:38:01.915Z,3.00
2022-10-19T15:40:35.685Z,3.35
2022-10-19T15:43:31.128Z,2.83
2022-10-19T15:46:00.901Z,3.00
2022-10-19T15:48:44.430Z,2.97
2022-10-19T15:51:29.178Z,2.92
2022-10-19T15:53:58.593Z,2.95
2022-10-19T15:56:28.262Z,3.05
2022-10-19T15:58:58.262Z,3.20
2022-10-19T16:01:31.470Z,3.00
2022-10-19T16:03:58.374Z,2.90
2022-10-19T16:06:27.857Z,2.90
2022-10-19T16:08:54.566Z,2.88
2022-10-19T16:11:23.264Z,3.13
2022-10-19T16:13:50.235Z,3.22
2022-10-19T16:16:24.829Z,3.40
2022-10-19T16:18:52.186Z,3.10
2022-10-19T16:21:21.050Z,2.90
2022-10-19T16:23:47.929Z,3.00
2022-10-19T16:26:16.632Z,2.80
2022-10-19T16:28:43.974Z,2.60
2022-10-19T16:31:10.670Z,3.08
2022-10-19T16:33:37.558Z,3.13
2022-10-19T16:36:08.607Z,3.35
2022-10-19T16:38:36.444Z,3.17
2022-10-19T16:41:04.908Z,3.30
2022-10-19T16:43:31.535Z,3.95
2022-10-19T16:45:58.103Z,3.30
2022-10-19T16:48:25.645Z,3.65
2022-10-19T16:51:07.597Z,3.70
2022-10-19T16:53:35.357Z,3.63
2022-10-19T16:56:10.285Z,4.00
2022-10-19T16:58:37.437Z,3.75
2022-10-19T17:01:08.050Z,4.32
2022-10-19T17:03:34.787Z,4.10
2022-10-19T17:06:06.018Z,4.13
2022-10-19T17:08:37.355Z,4.03
2022-10-19T17:11:20.862Z,4.50
2022-10-19T17:13:49.327Z,4.80
2022-10-19T17:16:17.626Z,5.10
2022-10-19T17:18:44.442Z,5.28
2022-10-19T17:21:16.436Z,4.85
2022-10-19T17:23:44.103Z,5.80
2022-10-19T17:26:12.168Z,5.03
2022-10-19T17:28:40.434Z,5.55
2022-10-19T17:31:10.572Z,5.03
2022-10-19T17:33:39.417Z,5.80
2022-10-19T17:36:15.366Z,5.75
2022-10-19T17:38:42.147Z,5.40
2022-10-19T17:41:11.926Z,5.13
2022-10-19T17:43:41.251Z,6.13
2022-10-19T17:46:09.879Z,5.10
2022-10-19T17:48:40.282Z,5.47
2022-10-19T17:51:10.877Z,5.68
2022-10-19T17:53:39.165Z,5.50
2022-10-19T17:56:07.707Z,5.40
2022-10-19T17:58:39.052Z,4.40
2022-10-19T18:01:07.275Z,4.85
2022-10-19T18:03:34.973Z,5.15
2022-10-19T18:06:10.902Z,5.70
2022-10-19T18:08:40.467Z,5.40
2022-10-19T18:11:11.023Z,5.88
2022-10-19T18:16:45.709Z,6.63
2022-10-19T18:19:14.594Z,6.95
2022-10-19T18:21:43.909Z,6.28
2022-10-19T18:24:19.739Z,6.07
2022-10-19T18:26:47.920Z,5.60
2022-10-19T18:29:21.047Z,4.95
2022-10-19T18:31:53.068Z,4.70
2022-10-19T18:34:23.662Z,4.63
2022-10-19T18:36:50.555Z,5.40
2022-10-19T18:39:18.009Z,4.82
2022-10-19T18:41:44.639Z,5.63
2022-10-19T18:44:13.250Z,5.57
2022-10-19T18:46:40.427Z,5.05
2022-10-19T18:49:08.661Z,4.82
2022-10-19T18:51:35.914Z,4.63
2022-10-19T18:54:02.571Z,5.43
2022-10-19T18:56:33.566Z,5.40
2022-10-19T18:59:00.202Z,5.32
2022-10-19T19:01:28.422Z,5.97
2022-10-19T19:04:04.493Z,5.95
2022-10-19T19:06:31.781Z,5.65
2022-10-19T19:09:01.166Z,6.45
2022-10-19T19:11:36.735Z,6.03
2022-10-19T19:14:12.237Z,5.82
2022-10-19T19:16:39.887Z,5.63
2022-10-19T19:19:08.688Z,6.88
2022-10-19T19:21:36.674Z,5.75
2022-10-19T19:24:05.673Z,6.50
2022-10-19T19:26:35.114Z,6.72
2022-10-19T19:29:02.670Z,7.57
2022-10-19T19:31:29.571Z,7.18
2022-10-19T19:33:56.510Z,8.43
2022-10-19T19:36:23.077Z,7.63
2022-10-19T19:38:51.876Z,8.70
2022-10-19T19:41:18.523Z,7.78
2022-10-19T19:43:45.211Z,8.27
2022-10-19T19:46:14.642Z,8.80
2022-10-19T19:48:43.395Z,8.80
2022-10-19T19:51:17.693Z,9.40
2022-10-19T19:53:45.016Z,9.93
2022-10-19T19:56:13.541Z,8.35
2022-10-19T19:58:41.223Z,9.30
2022-10-19T20:01:17.039Z,8.07
2022-10-19T20:03:43.906Z,8.73
2022-10-19T20:06:10.993Z,8.80
2022-10-19T20:08:38.295Z,8.65
2022-10-19T20:11:08.235Z,9.45
2022-10-19T20:13:35.945Z,8.90
2022-10-19T20:16:17.518Z,10.23
2022-10-19T20:18:46.177Z,9.85
2022-10-19T20:21:13.337Z,10.20
2022-10-19T20:23:40.122Z,10.05
2022-10-19T20:26:09.527Z,16.38
2022-10-19T20:28:36.170Z,29.48
2022-10-19T20:31:08.812Z,29.67
2022-10-19T20:33:37.763Z,27.80
2022-10-19T20:36:12.922Z,28.67
2022-10-19T20:38:41.786Z,27.38
2022-10-19T20:41:09.945Z,22.05
2022-10-19T20:43:39.868Z,18.42
2022-10-19T20:46:10.350Z,20.23
2022-10-19T20:48:37.983Z,21.80
2022-10-19T20:51:10.170Z,14.75
2022-10-19T20:53:36.874Z,16.05
2022-10-19T20:56:09.016Z,13.35
2022-10-19T20:58:39.238Z,12.52
2022-10-19T21:01:17.519Z,11.50
2022-10-19T21:03:56.125Z,16.35
2022-10-19T21:06:26.498Z,16.42
2022-10-19T21:08:53.512Z,15.43
2022-10-19T21:11:28.813Z,16.92
2022-10-19T21:13:57.356Z,16.30
2022-10-19T21:16:27.604Z,16.45
2022-10-19T21:18:57.331Z,15.40
2022-10-19T21:21:29.317Z,13.60
2022-10-19T21:24:02.558Z,13.93
2022-10-19T21:26:29.268Z,13.07
2022-10-19T21:28:56.129Z,12.15
2022-10-19T21:31:24.473Z,12.63
2022-10-19T21:33:51.865Z,11.35
2022-10-19T21:36:19.502Z,12.30
2022-10-19T21:38:46.098Z,18.55
2022-10-19T21:41:20.844Z,18.63
2022-10-19T21:43:50.504Z,25.70
2022-10-19T21:46:20.145Z,23.67
2022-10-19T21:48:47.461Z,22.60
2022-10-19T21:51:17.026Z,20.38
2022-10-19T21:53:44.309Z,19.65
2022-10-19T21:56:10.938Z,18.15
2022-10-19T21:58:37.507Z,17.13
2022-10-19T22:01:05.611Z,17.25
2022-10-19T22:03:32.315Z,18.42
2022-10-19T22:05:58.941Z,16.45
2022-10-19T22:08:26.200Z,20.88
2022-10-19T22:10:53.178Z,16.23
2022-10-19T22:13:19.767Z,16.77
2022-10-19T22:15:46.429Z,17.42
2022-10-19T22:18:13.108Z,18.00
2022-10-19T22:20:41.470Z,15.93
2022-10-19T22:23:08.560Z,16.95
2022-10-19T22:25:35.791Z,18.02
2022-10-19T22:28:02.584Z,17.85
2022-10-19T22:30:29.259Z,16.52
2022-10-19T22:32:56.110Z,17.73
2022-10-19T22:35:22.702Z,19.67
2022-10-19T22:37:49.258Z,18.98
2022-10-19T22:40:15.810Z,20.25
2022-10-19T22:42:42.395Z,16.98
2022-10-19T22:45:09.249Z,17.52
2022-10-19T22:47:35.854Z,20.55
2022-10-19T22:50:02.484Z,17.88
2022-10-19T22:52:29.068Z,18.05
2022-10-19T22:54:55.674Z,18.38
2022-10-19T22:57:22.504Z,19.95
2022-10-19T22:59:49.182Z,20.92
2022-10-19T23:02:15.809Z,21.45
2022-10-19T23:04:42.382Z,20.38
2022-10-19T23:07:09.003Z,19.10
2022-10-19T23:09:35.579Z,18.27
2022-10-19T23:12:02.135Z,18.88
2022-10-19T23:14:28.812Z,16.98
2022-10-19T23:16:55.520Z,16.27
2022-10-19T23:19:22.116Z,17.25
2022-10-19T23:21:48.760Z,19.42
2022-10-19T23:24:15.323Z,17.25
2022-10-19T23:26:41.901Z,17.20
2022-10-19T23:29:08.468Z,18.23
2022-10-19T23:31:35.105Z,28.00
2022-10-19T23:34:01.705Z,24.13
2022-10-19T23:36:29.286Z,29.88
2022-10-19T23:38:57.137Z,31.20
2022-10-19T23:41:24.132Z,26.88
2022-10-19T23:43:50.781Z,19.42
2022-10-19T23:46:17.602Z,16.92
2022-10-19T23:48:44.225Z,15.65
2022-10-19T23:51:16.670Z,16.15
2022-10-19T23:53:45.325Z,15.50
2022-10-19T23:56:28.076Z,16.67
2022-10-19T23:58:55.219Z,16.90
